Time;durP1;ratioP1;P1;durP2;ratioP2;P2;SDS_P1;SDS_P2;PMS_P1;PMS_P2;Temp;Humidity;BMP_temperature;BMP_pressure;BME280_temperature;BME280_humidity;BME280_pressure;Samples;Min_cycle;Max_cycle;Signal;HPM_P1;HPM_P2
2023/05/07 07:55:03;;;;;;;5.30;3.65;;;12.90;97.60;;;;;;1313516;27;20056;-68
2023/05/07 08:08:23;;;;;;;4.72;3.75;;;12.90;97.50;;;;;;5109629;27;20509;-68
2023/05/07 08:10:50;;;;;;;6.30;3.63;;;13.00;97.50;;;;;;5100915;28;20027;-68
2023/05/07 08:13:16;;;;;;;6.35;4.05;;;13.10;97.50;;;;;;5098461;28;20060;-68
2023/05/07 08:15:41;;;;;;;4.85;3.50;;;13.10;97.40;;;;;;5098485;28;20066;-69
2023/05/07 08:18:07;;;;;;;4.70;3.22;;;13.20;97.30;;;;;;5100417;28;20380;-68
2023/05/07 08:20:33;;;;;;;4.75;3.40;;;13.30;97.00;;;;;;5098736;28;20032;-69
2023/05/07 08:22:59;;;;;;;4.25;2.97;;;13.30;97.20;;;;;;5100766;28;20059;-68
2023/05/07 08:25:24;;;;;;;4.45;3.40;;;13.40;97.00;;;;;;5098578;28;20491;-68
2023/05/07 08:27:50;;;;;;;4.95;3.53;;;13.40;96.60;;;;;;5143559;22;20023;-69
2023/05/07 08:30:16;;;;;;;5.03;3.33;;;13.40;96.60;;;;;;5390286;22;20527;-75
2023/05/07 08:32:46;;;;;;;4.95;3.00;;;13.50;96.30;;;;;;5053306;28;20028;-75
2023/05/07 08:35:11;;;;;;;5.22;2.95;;;13.50;96.30;;;;;;5047999;28;20472;-75
2023/05/07 08:37:37;;;;;;;4.78;2.85;;;13.60;96.20;;;;;;5076463;28;20119;-75
2023/05/07 08:40:03;;;;;;;4.05;2.85;;;13.60;96.20;;;;;;5080305;28;20187;-75
2023/05/07 08:42:31;;;;;;;6.25;3.42;;;13.70;96.10;;;;;;5074766;28;20036;-75
2023/05/07 08:44:59;;;;;;;3.97;2.83;;;13.70;96.00;;;;;;5065718;28;20040;-74
2023/05/07 08:47:34;;;;;;;4.10;3.00;;;13.80;96.10;;;;;;5069603;28;20028;-75
2023/05/07 08:50:01;;;;;;;5.93;3.38;;;13.90;96.00;;;;;;5076190;28;20029;-74
2023/05/07 08:52:27;;;;;;;5.13;3.40;;;13.90;95.90;;;;;;5074112;28;20506;-74
2023/05/07 08:54:52;;;;;;;5.65;3.28;;;14.00;95.80;;;;;;5077271;28;20051;-75
2023/05/07 08:57:19;;;;;;;4.28;2.75;;;14.10;95.50;;;;;;5083030;28;20032;-74
2023/05/07 08:59:45;;;;;;;4.30;2.65;;;14.20;95.40;;;;;;5070472;28;20108;-71
2023/05/07 09:02:11;;;;;;;4.22;2.65;;;14.30;95.20;;;;;;5076851;28;20044;-76
2023/05/07 09:04:37;;;;;;;3.67;2.72;;;14.40;95.10;;;;;;5082265;28;20042;-76
2023/05/07 09:07:05;;;;;;;4.82;2.92;;;14.50;95.20;;;;;;5076549;28;20025;-76
2023/05/07 09:09:33;;;;;;;5.38;2.85;;;14.70;94.70;;;;;;5058565;28;20028;-76
2023/05/07 09:11:59;;;;;;;5.22;2.45;;;14.70;94.60;;;;;;5060736;28;20127;-76
2023/05/07 09:14:25;;;;;;;5.00;2.58;;;14.80;94.60;;;;;;5070076;28;20032;-71
2023/05/07 09:16:53;;;;;;;5.40;2.65;;;14.90;94.30;;;;;;5049433;28;20040;-70
2023/05/07 09:19:23;;;;;;;4.78;3.00;;;15.00;94.50;;;;;;5052642;28;20065;-75
2023/05/07 09:21:49;;;;;;;3.50;2.33;;;15.10;94.20;;;;;;5066598;28;20043;-74
2023/05/07 09:24:16;;;;;;;3.33;2.35;;;15.10;94.10;;;;;;5044972;28;20029;-77
2023/05/07 09:26:41;;;;;;;4.93;2.58;;;15.10;94.00;;;;;;5052897;28;20040;-78
2023/05/07 09:29:09;;;;;;;4.78;2.80;;;15.20;93.90;;;;;;5068363;28;20028;-77
2023/05/07 09:31:38;;;;;;;3.95;2.88;;;15.20;93.80;;;;;;5069979;28;20418;-77
2023/05/07 09:34:05;;;;;;;4.55;3.17;;;15.20;93.50;;;;;;5064277;28;20402;-77
2023/05/07 09:36:32;;;;;;;6.60;2.67;;;15.20;93.40;;;;;;5064597;28;20033;-77
2023/05/07 09:39:01;;;;;;;4.32;2.80;;;15.20;93.50;;;;;;5068507;28;20032;-78
2023/05/07 09:41:28;;;;;;;3.78;2.53;;;15.20;93.50;;;;;;5063422;28;20414;-78
2023/05/07 09:43:55;;;;;;;4.22;2.63;;;15.30;93.20;;;;;;5066776;28;20037;-77
2023/05/07 09:46:25;;;;;;;3.92;2.47;;;15.40;93.30;;;;;;5058803;28;20443;-78
2023/05/07 09:48:53;;;;;;;3.38;2.70;;;15.40;92.80;;;;;;5065492;28;20071;-78
2023/05/07 09:51:29;;;;;;;5.40;2.53;;;15.40;92.80;;;;;;5047833;28;20725;-78
2023/05/07 09:53:57;;;;;;;3.47;2.40;;;15.50;93.00;;;;;;5065120;28;20032;-78
2023/05/07 09:56:23;;;;;;;5.43;2.63;;;15.50;92.90;;;;;;5037442;28;20532;-79
2023/05/07 09:58:52;;;;;;;4.38;2.55;;;15.60;92.60;;;;;;5061843;28;20130;-78
2023/05/07 10:01:21;;;;;;;6.72;3.00;;;15.60;92.50;;;;;;5039565;28;20107;-78
2023/05/07 10:03:48;;;;;;;4.38;2.00;;;15.70;92.50;;;;;;5040247;28;20452;-78
2023/05/07 10:06:15;;;;;;;3.40;2.20;;;15.70;92.20;;;;;;5059077;28;20108;-80
2023/05/07 10:08:42;;;;;;;3.17;2.10;;;15.70;92.00;;;;;;5050569;28;20020;-79
2023/05/07 10:11:08;;;;;;;3.58;2.28;;;15.80;91.80;;;;;;5063439;28;20033;-78
2023/05/07 10:13:35;;;;;;;3.08;1.77;;;15.80;92.00;;;;;;5064319;28;20387;-78
2023/05/07 10:16:03;;;;;;;3.42;2.00;;;15.90;91.90;;;;;;5058200;28;20037;-79
2023/05/07 10:18:33;;;;;;;3.60;1.90;;;15.90;91.60;;;;;;5056618;28;20025;-79
2023/05/07 10:21:08;;;;;;;2.85;1.80;;;15.90;91.40;;;;;;5057679;28;20025;-77
2023/05/07 10:23:34;;;;;;;4.43;1.80;;;15.90;91.40;;;;;;5045850;28;20102;-78
2023/05/07 10:26:04;;;;;;;2.10;1.50;;;15.90;91.40;;;;;;5063006;28;20389;-77
2023/05/07 10:28:34;;;;;;;2.83;1.85;;;16.00;91.20;;;;;;5051779;28;20044;-78
2023/05/07 10:31:18;;;;;;;2.97;1.90;;;16.00;91.00;;;;;;5043959;28;20049;-77
2023/05/07 10:33:46;;;;;;;2.50;1.60;;;16.00;90.80;;;;;;5040559;28;20036;-77
2023/05/07 10:36:12;;;;;;;3.70;1.85;;;16.00;90.80;;;;;;5065779;28;20495;-77
2023/05/07 10:38:40;;;;;;;3.20;1.60;;;16.00;90.80;;;;;;5049850;28;20031;-78
2023/05/07 10:41:06;;;;;;;3.40;2.00;;;16.10;90.70;;;;;;5048965;28;20113;-77
2023/05/07 10:43:45;;;;;;;2.63;1.63;;;16.10;90.40;;;;;;5055124;28;21166;-72
2023/05/07 10:46:14;;;;;;;3.10;1.85;;;16.10;90.30;;;;;;5048959;28;20025;-72
2023/05/07 10:49:06;;;;;;;2.97;1.77;;;16.20;90.30;;;;;;5056556;28;20337;-72
2023/05/07 10:51:32;;;;;;;1.38;1.13;;;16.20;90.10;;;;;;5054312;28;20116;-72
2023/05/07 10:54:10;;;;;;;2.50;1.85;;;16.20;90.20;;;;;;5059456;28;20060;-72
2023/05/07 10:56:37;;;;;;;2.10;1.60;;;16.40;90.10;;;;;;5052487;28;20106;-72
2023/05/07 10:59:26;;;;;;;2.35;1.63;;;16.50;89.90;;;;;;5063630;28;20096;-72
2023/05/07 11:02:07;;;;;;;3.95;1.77;;;16.60;90.00;;;;;;5057896;28;20115;-72
2023/05/07 11:04:34;;;;;;;1.90;1.48;;;16.60;89.80;;;;;;5058505;28;20025;-70
2023/05/07 11:07:06;;;;;;;1.90;1.40;;;16.70;89.50;;;;;;5060934;28;20067;-71
2023/05/07 11:09:58;;;;;;;3.05;1.83;;;16.80;88.90;;;;;;5060925;28;20028;-67
2023/05/07 11:12:35;;;;;;;2.47;1.42;;;16.90;89.00;;;;;;5060514;28;20134;-67
2023/05/07 11:15:17;;;;;;;2.60;1.90;;;17.00;89.30;;;;;;5034828;28;20078;-68
2023/05/07 11:17:57;;;;;;;1.90;1.48;;;17.20;88.70;;;;;;5050867;28;20037;-69
2023/05/07 11:20:45;;;;;;;2.58;1.58;;;17.30;87.90;;;;;;5058785;28;20025;-68
2023/05/07 11:23:32;;;;;;;2.63;1.60;;;17.40;87.40;;;;;;5077487;28;20114;-68
2023/05/07 11:26:09;;;;;;;2.50;1.80;;;17.60;87.40;;;;;;5055551;28;20025;-68
2023/05/07 11:28:40;;;;;;;2.80;1.77;;;17.70;85.90;;;;;;5049746;28;20432;-68
2023/05/07 11:31:07;;;;;;;2.75;1.77;;;17.60;85.30;;;;;;5051274;28;20045;-67
2023/05/07 11:33:33;;;;;;;3.03;1.67;;;17.50;85.00;;;;;;5065140;28;20060;-68
2023/05/07 11:36:00;;;;;;;2.75;1.80;;;17.40;84.40;;;;;;5056922;28;20179;-68
2023/05/07 11:38:26;;;;;;;2.63;1.58;;;17.30;83.90;;;;;;5061196;28;20109;-68
2023/05/07 11:40:53;;;;;;;2.13;1.48;;;17.20;84.50;;;;;;5066419;28;20128;-68
2023/05/07 11:43:19;;;;;;;3.08;1.85;;;17.20;84.50;;;;;;5675239;22;20037;-76
2023/05/07 11:45:46;;;;;;;2.92;1.85;;;17.20;84.60;;;;;;5055721;28;20036;-76
2023/05/07 11:48:16;;;;;;;4.97;2.30;;;17.20;84.30;;;;;;5080010;28;20028;-76
2023/05/07 11:51:03;;;;;;;7.07;1.90;;;17.30;84.40;;;;;;5079354;28;20035;-76
2023/05/07 11:53:39;;;;;;;2.35;1.42;;;17.40;84.70;;;;;;5079235;28;20024;-77
2023/05/07 11:56:13;;;;;;;3.33;1.60;;;17.50;84.40;;;;;;5083672;28;20032;-74
2023/05/07 11:58:40;;;;;;;3.70;2.20;;;17.60;84.40;;;;;;5086586;28;20024;-76
2023/05/07 12:01:11;;;;;;;2.10;1.63;;;17.70;84.20;;;;;;5089499;28;20028;-74
2023/05/07 12:03:42;;;;;;;2.20;1.50;;;17.70;83.70;;;;;;5070294;28;20108;-74
2023/05/07 12:06:08;;;;;;;2.53;1.70;;;17.60;83.20;;;;;;5084681;28;20448;-74
2023/05/07 12:08:37;;;;;;;2.60;1.73;;;17.60;83.20;;;;;;5089727;28;20055;-73
2023/05/07 12:11:03;;;;;;;2.67;1.58;;;17.60;82.70;;;;;;5090605;28;20096;-74
2023/05/07 12:13:29;;;;;;;2.13;1.45;;;17.50;83.00;;;;;;5088731;28;20032;-74
2023/05/07 12:15:57;;;;;;;2.92;1.65;;;17.50;82.40;;;;;;5089064;28;20020;-74
2023/05/07 12:18:24;;;;;;;2.60;1.95;;;17.50;81.70;;;;;;5089350;28;20031;-74
2023/05/07 12:20:50;;;;;;;1.80;1.55;;;17.50;81.20;;;;;;5090034;28;20028;-74
2023/05/07 12:23:17;;;;;;;2.13;1.20;;;17.50;80.60;;;;;;5090347;28;20027;-74
2023/05/07 12:25:47;;;;;;;2.38;1.48;;;17.60;80.70;;;;;;5087334;28;20565;-73
2023/05/07 12:28:15;;;;;;;2.38;1.25;;;17.70;80.80;;;;;;5090214;28;20092;-74
2023/05/07 12:30:42;;;;;;;2.40;1.52;;;17.70;80.80;;;;;;5075399;28;20052;-71
2023/05/07 12:33:08;;;;;;;3.08;1.73;;;17.80;80.50;;;;;;5080424;28;20110;-77
2023/05/07 12:35:42;;;;;;;4.38;1.70;;;17.70;80.70;;;;;;5087579;28;20025;-74
2023/05/07 12:38:12;;;;;;;2.83;1.65;;;17.80;80.50;;;;;;5090170;28;20126;-73
2023/05/07 12:40:39;;;;;;;2.20;1.40;;;17.80;80.50;;;;;;5089105;28;20020;-75
2023/05/07 12:43:05;;;;;;;2.10;1.35;;;17.80;80.00;;;;;;5089615;28;20040;-72
2023/05/07 12:45:30;;;;;;;1.75;1.30;;;17.80;79.80;;;;;;5071190;28;20504;-75
2023/05/07 12:48:00;;;;;;;2.83;1.75;;;17.70;79.10;;;;;;5072572;28;20028;-76
2023/05/07 12:50:30;;;;;;;2.13;1.63;;;17.60;79.20;;;;;;5067444;28;20021;-75
2023/05/07 12:52:58;;;;;;;2.83;1.63;;;17.50;79.10;;;;;;5058713;28;20017;-67
2023/05/07 12:55:24;;;;;;;2.03;1.50;;;17.50;79.40;;;;;;5074914;28;20385;-64
2023/05/07 12:57:52;;;;;;;4.95;1.83;;;17.70;79.70;;;;;;5073073;28;20060;-56
2023/05/07 13:00:39;;;;;;;1.98;1.38;;;17.80;79.90;;;;;;5072678;28;20029;-69
2023/05/07 13:03:06;;;;;;;1.70;1.48;;;17.90;79.50;;;;;;5057324;28;20033;-75
2023/05/07 13:05:32;;;;;;;2.78;1.40;;;18.00;79.30;;;;;;5067497;28;20086;-75
2023/05/07 13:07:58;;;;;;;2.38;1.60;;;18.20;79.10;;;;;;5072464;28;20485;-75
2023/05/07 13:10:24;;;;;;;1.60;1.20;;;18.20;78.20;;;;;;5071800;28;20040;-75
2023/05/07 13:12:50;;;;;;;2.58;1.50;;;18.40;78.00;;;;;;5072723;28;20033;-75
2023/05/07 13:15:16;;;;;;;1.65;1.35;;;18.40;78.10;;;;;;5070949;28;20029;-74
2023/05/07 13:17:42;;;;;;;1.50;1.17;;;18.50;77.70;;;;;;5071025;28;20040;-75
2023/05/07 13:20:10;;;;;;;1.42;1.25;;;18.60;78.10;;;;;;5071968;28;20515;-75
2023/05/07 13:22:36;;;;;;;1.95;1.20;;;18.70;77.70;;;;;;5072322;28;20070;-75
2023/05/07 13:25:01;;;;;;;1.25;1.02;;;18.80;77.60;;;;;;5070704;28;20473;-76
2023/05/07 13:27:27;;;;;;;1.85;1.42;;;19.00;77.40;;;;;;5070882;28;20036;-76
2023/05/07 13:29:52;;;;;;;2.35;1.23;;;19.00;76.20;;;;;;5072661;28;20024;-75
2023/05/07 13:32:18;;;;;;;2.08;1.30;;;19.10;76.30;;;;;;5072569;28;20036;-75
2023/05/07 13:34:43;;;;;;;1.75;1.23;;;19.10;75.80;;;;;;5071071;28;20048;-75
2023/05/07 13:37:09;;;;;;;2.20;1.30;;;19.30;76.00;;;;;;5072337;28;20090;-75
2023/05/07 13:39:35;;;;;;;2.38;1.42;;;19.40;75.40;;;;;;5050048;28;20021;-75
2023/05/07 13:42:01;;;;;;;1.35;1.00;;;19.50;75.10;;;;;;5071524;28;20492;-75
2023/05/07 13:44:26;;;;;;;2.35;1.38;;;19.70;74.30;;;;;;5064702;28;20106;-74
2023/05/07 13:46:52;;;;;;;2.42;1.52;;;19.70;73.80;;;;;;5072649;28;20036;-75
2023/05/07 13:49:18;;;;;;;1.83;1.27;;;19.60;73.20;;;;;;5071453;28;20535;-76
2023/05/07 13:51:43;;;;;;;1.52;1.20;;;19.60;73.40;;;;;;5073343;28;20043;-74
2023/05/07 13:54:09;;;;;;;2.10;1.20;;;19.60;73.40;;;;;;5066266;28;20025;-75
2023/05/07 13:56:35;;;;;;;1.58;1.10;;;19.70;73.00;;;;;;5102982;28;20040;-76
2023/05/07 13:59:00;;;;;;;2.83;1.23;;;19.80;72.50;;;;;;5083908;28;20049;-77
2023/05/07 14:01:27;;;;;;;1.92;1.30;;;20.00;72.20;;;;;;5081092;28;20052;-75
2023/05/07 14:03:52;;;;;;;2.47;1.83;;;20.10;72.20;;;;;;5085483;28;20024;-73
2023/05/07 14:06:18;;;;;;;1.55;1.10;;;20.20;72.00;;;;;;5091074;28;20032;-74
2023/05/07 14:08:43;;;;;;;2.40;1.83;;;20.30;71.80;;;;;;5057019;28;20554;-73
2023/05/07 14:11:09;;;;;;;2.17;1.40;;;20.30;71.20;;;;;;5075819;28;20438;-73
2023/05/07 14:13:35;;;;;;;3.60;1.60;;;20.30;70.70;;;;;;5055116;28;20056;-74
2023/05/07 14:16:00;;;;;;;2.00;1.50;;;20.30;71.10;;;;;;5053166;28;20523;-74
2023/05/07 14:18:28;;;;;;;6.65;1.50;;;20.30;71.30;;;;;;5067864;28;20389;-74
2023/05/07 14:20:54;;;;;;;1.95;1.42;;;20.40;70.60;;;;;;5070008;28;20123;-74
2023/05/07 14:23:21;;;;;;;1.58;1.05;;;20.40;70.00;;;;;;5081732;28;20112;-74
2023/05/07 14:25:47;;;;;;;2.20;1.42;;;20.50;69.80;;;;;;5091483;28;20059;-74
2023/05/07 14:28:13;;;;;;;2.40;1.48;;;20.50;69.20;;;;;;5070311;28;20086;-74
2023/05/07 14:30:39;;;;;;;3.22;1.27;;;20.50;68.90;;;;;;5071791;28;20070;-74
2023/05/07 14:33:04;;;;;;;2.00;1.20;;;20.30;68.90;;;;;;5070526;28;20033;-74
2023/05/07 14:35:30;;;;;;;1.50;1.40;;;20.30;69.10;;;;;;5061316;28;20048;-74
2023/05/07 14:37:55;;;;;;;2.05;1.60;;;20.30;68.50;;;;;;5057975;28;20044;-74
2023/05/07 14:40:21;;;;;;;3.50;1.92;;;20.20;68.60;;;;;;5063379;28;20052;-73
2023/05/07 14:42:47;;;;;;;1.92;1.05;;;20.20;68.70;;;;;;5051125;28;20025;-73
2023/05/07 14:45:12;;;;;;;1.80;1.10;;;20.20;69.00;;;;;;5066554;28;20097;-74
2023/05/07 14:47:38;;;;;;;2.58;1.73;;;20.10;68.70;;;;;;5067698;28;20047;-73
2023/05/07 14:50:04;;;;;;;2.72;1.40;;;20.00;68.30;;;;;;5068700;28;20041;-73
2023/05/07 14:52:30;;;;;;;3.00;1.27;;;19.80;68.00;;;;;;5069150;28;20031;-72
2023/05/07 14:54:55;;;;;;;1.50;1.20;;;19.70;68.30;;;;;;5058136;28;20028;-73
2023/05/07 14:57:21;;;;;;;2.20;1.35;;;19.50;68.50;;;;;;5099176;22;20180;-74
2023/05/07 14:59:47;;;;;;;2.92;1.23;;;19.40;68.50;;;;;;5048530;23;20378;-70
2023/05/07 15:02:13;;;;;;;2.28;1.30;;;19.30;69.10;;;;;;5066069;22;20112;-70
2023/05/07 15:04:46;;;;;;;2.47;1.20;;;19.20;69.40;;;;;;5055736;22;20059;-69
2023/05/07 15:07:16;;;;;;;1.85;1.10;;;19.20;69.60;;;;;;5039264;28;20033;-69
2023/05/07 15:09:44;;;;;;;2.35;1.50;;;19.20;69.30;;;;;;5041772;28;20020;-70
2023/05/07 15:12:11;;;;;;;1.45;1.20;;;19.20;69.50;;;;;;5050127;28;20033;-69
2023/05/07 15:14:37;;;;;;;2.47;1.58;;;19.10;69.60;;;;;;5020082;28;20105;-69
2023/05/07 15:17:03;;;;;;;1.65;1.50;;;19.10;69.40;;;;;;5036852;28;20098;-69
2023/05/07 15:19:29;;;;;;;2.40;1.35;;;19.00;69.50;;;;;;5027261;28;20025;-70
2023/05/07 15:22:02;;;;;;;2.72;1.63;;;18.90;69.80;;;;;;5037055;28;20029;-70
2023/05/07 15:24:28;;;;;;;7.82;1.48;;;18.80;69.90;;;;;;5017037;28;20270;-70
2023/05/07 15:26:54;;;;;;;1.50;1.38;;;18.70;70.10;;;;;;5041771;28;20071;-70
2023/05/07 15:29:20;;;;;;;3.15;1.30;;;18.70;70.50;;;;;;5042362;28;20670;-70
2023/05/07 15:31:45;;;;;;;1.80;1.45;;;18.60;70.40;;;;;;5038370;28;20072;-70
2023/05/07 15:34:11;;;;;;;1.52;1.20;;;18.50;70.20;;;;;;5037433;28;20052;-70
2023/05/07 15:36:37;;;;;;;1.80;1.02;;;18.30;70.30;;;;;;5038301;28;20397;-70
2023/05/07 15:39:04;;;;;;;1.80;1.40;;;18.20;70.40;;;;;;5039611;28;20064;-70
2023/05/07 15:41:30;;;;;;;1.95;1.27;;;18.10;70.30;;;;;;5012679;28;20033;-70
2023/05/07 15:43:55;;;;;;;2.13;1.23;;;18.00;70.10;;;;;;5040700;28;20067;-70
2023/05/07 15:46:25;;;;;;;2.35;1.58;;;17.90;69.90;;;;;;5029914;28;20032;-69
2023/05/07 15:48:52;;;;;;;2.13;1.38;;;17.80;69.90;;;;;;5036338;28;20021;-70
2023/05/07 15:51:19;;;;;;;1.88;1.20;;;17.60;69.90;;;;;;5041237;28;20029;-70
2023/05/07 15:53:46;;;;;;;1.55;1.23;;;17.60;70.30;;;;;;5048798;28;20032;-69
2023/05/07 15:56:11;;;;;;;3.05;1.73;;;17.60;70.30;;;;;;5029980;28;20045;-70
2023/05/07 15:58:37;;;;;;;5.13;1.58;;;17.50;70.20;;;;;;5029863;28;20390;-70
2023/05/07 16:01:04;;;;;;;2.50;1.33;;;17.50;70.40;;;;;;5030188;28;20120;-69
2023/05/07 16:03:30;;;;;;;2.63;1.52;;;17.40;70.60;;;;;;5026219;28;20032;-69
2023/05/07 16:05:56;;;;;;;3.22;1.80;;;17.30;70.80;;;;;;5035208;28;20116;-69
2023/05/07 16:08:25;;;;;;;2.92;1.48;;;17.30;71.10;;;;;;5035606;28;20106;-69
2023/05/07 16:10:51;;;;;;;3.20;1.77;;;17.40;71.30;;;;;;5039995;28;20040;-69
2023/05/07 16:13:20;;;;;;;2.72;1.80;;;17.60;71.60;;;;;;5014352;28;20025;-70
2023/05/07 16:15:45;;;;;;;2.53;1.60;;;17.80;71.70;;;;;;5035308;28;20067;-70
2023/05/07 16:18:14;;;;;;;2.40;2.05;;;18.00;71.80;;;;;;5017005;28;20077;-69
2023/05/07 16:20:41;;;;;;;3.25;1.33;;;18.30;71.90;;;;;;5041683;28;20401;-70
2023/05/07 16:23:07;;;;;;;3.95;1.20;;;18.50;71.60;;;;;;5052104;28;20044;-70
2023/05/07 16:25:33;;;;;;;2.30;1.70;;;18.70;71.10;;;;;;5030218;28;20029;-70
2023/05/07 16:27:59;;;;;;;1.48;1.15;;;18.80;70.50;;;;;;5031400;28;20025;-69
2023/05/07 16:30:24;;;;;;;2.28;1.58;;;18.90;70.20;;;;;;5029859;28;20040;-70
2023/05/07 16:32:50;;;;;;;2.22;1.70;;;18.90;70.00;;;;;;5035091;28;20021;-70
2023/05/07 16:35:16;;;;;;;2.63;1.58;;;18.90;69.70;;;;;;5029410;28;20017;-70
2023/05/07 16:37:41;;;;;;;2.38;1.48;;;19.00;69.70;;;;;;5048189;28;20123;-70
2023/05/07 16:40:08;;;;;;;2.75;1.65;;;19.00;69.40;;;;;;5051015;28;20021;-70
2023/05/07 16:42:34;;;;;;;3.20;1.40;;;19.00;69.40;;;;;;5051152;28;20040;-70
2023/05/07 16:45:00;;;;;;;4.68;1.63;;;18.90;69.20;;;;;;5045676;28;20123;-70
2023/05/07 16:47:26;;;;;;;2.05;1.58;;;18.80;69.00;;;;;;5050430;28;20426;-70
2023/05/07 16:49:52;;;;;;;2.10;1.60;;;18.70;68.90;;;;;;5050493;28;20074;-70
2023/05/07 16:52:17;;;;;;;2.65;1.40;;;18.50;69.00;;;;;;5047839;28;20036;-70
2023/05/07 16:54:43;;;;;;;1.77;1.38;;;18.30;69.20;;;;;;5033942;28;20544;-70
2023/05/07 16:57:09;;;;;;;2.33;1.15;;;18.10;69.40;;;;;;5039166;28;20106;-70
2023/05/07 16:59:34;;;;;;;2.13;1.60;;;18.00;69.60;;;;;;5033449;28;20492;-70
2023/05/07 17:02:00;;;;;;;2.40;1.38;;;17.90;69.80;;;;;;5033434;28;20040;-70
2023/05/07 17:04:26;;;;;;;2.88;1.65;;;17.80;69.80;;;;;;5037550;28;20049;-70
2023/05/07 17:06:52;;;;;;;2.05;1.23;;;17.80;70.20;;;;;;5031789;28;20033;-70
2023/05/07 17:09:17;;;;;;;2.20;1.30;;;17.80;70.20;;;;;;5045479;28;20018;-70
2023/05/07 17:11:43;;;;;;;1.77;1.48;;;17.80;70.30;;;;;;5046763;28;20033;-70
2023/05/07 17:14:10;;;;;;;1.73;1.45;;;17.80;70.40;;;;;;5049177;28;20119;-70
2023/05/07 17:16:35;;;;;;;2.05;1.70;;;17.80;70.30;;;;;;5049911;28;20135;-70
2023/05/07 17:19:01;;;;;;;2.78;1.08;;;17.80;70.20;;;;;;5049761;28;20116;-69
2023/05/07 17:21:27;;;;;;;2.35;1.50;;;17.80;70.30;;;;;;5044462;28;20029;-73
2023/05/07 17:23:53;;;;;;;1.52;1.23;;;17.80;69.90;;;;;;5032306;28;20483;-68
2023/05/07 17:26:20;;;;;;;2.08;1.23;;;17.70;70.00;;;;;;5039154;28;20026;-71
2023/05/07 17:28:45;;;;;;;2.20;1.50;;;17.60;70.00;;;;;;5045124;28;20037;-71
2023/05/07 17:31:11;;;;;;;1.85;1.40;;;17.40;69.90;;;;;;5042436;28;20728;-68
2023/05/07 17:33:36;;;;;;;3.58;2.08;;;17.30;69.80;;;;;;5042784;28;20397;-68
2023/05/07 17:36:02;;;;;;;1.88;1.23;;;17.10;69.60;;;;;;5029197;28;20037;-68
2023/05/07 17:38:29;;;;;;;3.53;1.30;;;16.90;70.00;;;;;;5023806;28;20037;-68
2023/05/07 17:40:55;;;;;;;2.28;1.45;;;16.90;70.20;;;;;;5025065;28;20021;-70
2023/05/07 17:43:22;;;;;;;2.40;1.60;;;16.80;70.50;;;;;;5037066;28;20038;-71
2023/05/07 17:45:51;;;;;;;2.97;2.05;;;16.70;70.60;;;;;;5031823;28;20045;-70
2023/05/07 17:48:17;;;;;;;2.78;1.60;;;16.60;70.80;;;;;;5047891;28;20193;-70
2023/05/07 17:50:43;;;;;;;6.55;2.35;;;16.60;71.00;;;;;;5045898;28;20530;-70
2023/05/07 17:53:10;;;;;;;2.78;1.35;;;16.50;71.30;;;;;;5047413;28;20163;-69
2023/05/07 17:55:40;;;;;;;3.50;1.20;;;16.40;72.00;;;;;;5041229;28;20107;-69
2023/05/07 17:58:06;;;;;;;3.08;1.40;;;16.30;71.50;;;;;;5038663;28;20045;-70
2023/05/07 18:00:32;;;;;;;1.95;1.30;;;16.30;71.80;;;;;;5044330;28;20048;-69
2023/05/07 18:02:58;;;;;;;2.25;1.67;;;16.20;71.90;;;;;;5048349;28;20048;-69
2023/05/07 18:05:28;;;;;;;2.15;1.30;;;16.10;72.10;;;;;;5042887;28;20045;-70
2023/05/07 18:07:54;;;;;;;1.67;1.30;;;16.10;72.30;;;;;;5044362;28;20025;-71
2023/05/07 18:10:21;;;;;;;2.55;1.52;;;16.00;72.20;;;;;;5026513;28;20033;-71
2023/05/07 18:12:47;;;;;;;2.03;1.35;;;15.90;72.30;;;;;;5034265;28;20044;-70
2023/05/07 18:15:13;;;;;;;2.00;1.35;;;15.80;72.40;;;;;;5046918;28;20033;-71
2023/05/07 18:17:40;;;;;;;2.45;1.50;;;15.70;72.60;;;;;;5038358;28;20132;-71
2023/05/07 18:20:07;;;;;;;2.25;1.30;;;15.60;72.80;;;;;;5045160;28;20036;-71
2023/05/07 18:22:34;;;;;;;2.25;1.70;;;15.60;73.10;;;;;;5048179;28;20068;-71
2023/05/07 18:24:59;;;;;;;2.10;1.15;;;15.50;73.30;;;;;;5029422;28;20062;-71
2023/05/07 18:27:25;;;;;;;1.75;1.20;;;15.40;73.60;;;;;;5048613;28;20156;-72
2023/05/07 18:29:51;;;;;;;1.85;1.30;;;15.40;73.70;;;;;;5034150;28;20025;-71
2023/05/07 18:32:17;;;;;;;2.80;1.50;;;15.30;74.00;;;;;;5038660;28;20033;-71
2023/05/07 18:34:42;;;;;;;4.40;1.40;;;15.30;74.60;;;;;;5042213;28;20370;-71
2023/05/07 18:37:08;;;;;;;1.83;1.50;;;15.30;74.40;;;;;;5039604;28;20425;-72
2023/05/07 18:39:34;;;;;;;2.50;1.38;;;15.30;74.60;;;;;;5025428;28;20057;-72
2023/05/07 18:42:00;;;;;;;4.28;1.55;;;15.20;74.80;;;;;;5044105;28;20052;-73
2023/05/07 18:44:26;;;;;;;3.97;1.77;;;15.20;75.30;;;;;;5041325;28;20025;-71
2023/05/07 18:46:52;;;;;;;2.55;1.40;;;15.20;75.50;;;;;;5021297;28;20038;-70
2023/05/07 18:49:17;;;;;;;3.10;1.50;;;15.10;75.10;;;;;;5033609;28;20029;-70
2023/05/07 18:51:43;;;;;;;1.92;1.60;;;15.00;75.20;;;;;;5047816;28;20081;-70
2023/05/07 18:54:09;;;;;;;2.20;1.50;;;15.00;75.30;;;;;;5031498;28;20154;-70
2023/05/07 18:56:35;;;;;;;2.00;1.50;;;15.00;75.60;;;;;;5049914;28;20072;-74
2023/05/07 18:59:00;;;;;;;2.22;1.77;;;15.00;75.60;;;;;;5046162;28;20021;-70
2023/05/07 19:01:26;;;;;;;2.67;1.65;;;15.00;75.60;;;;;;5048022;28;20124;-71
2023/05/07 19:03:52;;;;;;;3.30;1.60;;;15.00;75.60;;;;;;5041870;28;20045;-71
2023/05/07 19:06:17;;;;;;;3.35;1.77;;;14.90;75.60;;;;;;5050336;28;20029;-70
2023/05/07 19:08:43;;;;;;;3.28;2.00;;;14.80;75.50;;;;;;5043954;28;20022;-72
2023/05/07 19:11:08;;;;;;;2.40;1.80;;;14.80;75.50;;;;;;5030563;28;20029;-73
2023/05/07 19:13:34;;;;;;;2.78;1.60;;;14.70;75.50;;;;;;5046451;28;20116;-72
2023/05/07 19:16:00;;;;;;;3.22;1.75;;;14.70;75.70;;;;;;5029874;28;20356;-73
2023/05/07 19:18:26;;;;;;;2.53;1.63;;;14.60;75.70;;;;;;5044814;28;20029;-72
2023/05/07 19:20:51;;;;;;;2.65;1.73;;;14.60;75.60;;;;;;5012818;28;20022;-72
2023/05/07 19:23:17;;;;;;;2.35;1.70;;;14.50;75.70;;;;;;5028399;28;20040;-72
2023/05/07 19:25:43;;;;;;;3.03;2.10;;;14.50;75.70;;;;;;5031184;28;20364;-73
2023/05/07 19:28:09;;;;;;;2.15;1.65;;;14.50;75.80;;;;;;5043736;28;20033;-72
2023/05/07 19:30:38;;;;;;;2.88;1.90;;;14.50;75.80;;;;;;5033210;28;20037;-72
2023/05/07 19:33:05;;;;;;;3.55;1.90;;;14.40;75.90;;;;;;5037837;28;20520;-72
2023/05/07 19:35:30;;;;;;;2.72;1.98;;;14.40;76.00;;;;;;5047605;28;20052;-72
2023/05/07 19:37:56;;;;;;;3.22;2.10;;;14.30;76.00;;;;;;5040986;28;20072;-72
2023/05/07 19:40:22;;;;;;;2.47;1.60;;;14.30;76.10;;;;;;5032690;28;20064;-73
2023/05/07 19:42:47;;;;;;;2.47;1.88;;;14.30;76.20;;;;;;5049668;28;20189;-71
2023/05/07 19:45:16;;;;;;;2.58;1.67;;;14.20;76.30;;;;;;5037345;28;20068;-71
2023/05/07 19:47:42;;;;;;;3.60;1.75;;;14.20;76.50;;;;;;5030703;28;20031;-70
2023/05/07 19:50:08;;;;;;;4.90;1.75;;;14.10;76.60;;;;;;5022814;28;20029;-74
2023/05/07 19:52:35;;;;;;;2.55;2.08;;;14.00;76.80;;;;;;5029543;28;20040;-74
2023/05/07 19:55:00;;;;;;;3.08;1.77;;;14.00;77.00;;;;;;5047919;28;20021;-74
2023/05/07 19:57:26;;;;;;;3.40;2.38;;;14.00;77.20;;;;;;5049196;28;20571;-73
2023/05/07 19:59:52;;;;;;;6.28;2.78;;;13.90;77.30;;;;;;5041404;28;20075;-72
2023/05/07 20:02:17;;;;;;;2.58;1.88;;;13.90;78.00;;;;;;5035326;28;20061;-73
2023/05/07 20:04:43;;;;;;;2.65;1.90;;;13.90;77.80;;;;;;5045488;28;20045;-75
2023/05/07 20:07:09;;;;;;;2.47;1.83;;;13.80;77.90;;;;;;5036494;28;20053;-73
2023/05/07 20:09:34;;;;;;;3.10;1.77;;;13.80;78.20;;;;;;5034932;28;20021;-73
2023/05/07 20:12:00;;;;;;;3.47;1.92;;;13.70;78.80;;;;;;5043829;28;20723;-72
2023/05/07 20:14:26;;;;;;;2.30;2.03;;;13.70;78.70;;;;;;5048928;28;20048;-74
2023/05/07 20:16:52;;;;;;;6.18;2.58;;;13.60;79.00;;;;;;5041161;28;20037;-73
2023/05/07 20:19:17;;;;;;;3.33;2.20;;;13.60;79.50;;;;;;5027598;28;20080;-72
2023/05/07 20:21:43;;;;;;;3.65;2.25;;;13.50;79.70;;;;;;5033189;28;20045;-72
2023/05/07 20:24:09;;;;;;;4.72;1.95;;;13.50;80.20;;;;;;5030360;28;20099;-73
2023/05/07 20:26:35;;;;;;;3.17;2.25;;;13.40;80.50;;;;;;5026091;28;20052;-73
2023/05/07 20:29:01;;;;;;;3.53;2.47;;;13.40;81.00;;;;;;5032290;28;20028;-73
2023/05/07 20:31:27;;;;;;;4.78;2.28;;;13.40;81.00;;;;;;5034699;28;20029;-73
2023/05/07 20:33:53;;;;;;;3.70;2.50;;;13.30;81.20;;;;;;5047371;28;20031;-74
2023/05/07 20:36:19;;;;;;;5.40;2.70;;;13.30;81.40;;;;;;5048453;28;20076;-72
2023/05/07 20:38:44;;;;;;;3.70;2.80;;;13.20;81.50;;;;;;5047123;28;20497;-75
2023/05/07 20:41:13;;;;;;;4.15;2.60;;;13.20;81.90;;;;;;5037936;28;20777;-73
2023/05/07 20:43:38;;;;;;;4.28;2.75;;;13.20;82.10;;;;;;5038447;28;20554;-73
2023/05/07 20:46:06;;;;;;;5.85;3.33;;;13.10;82.40;;;;;;5033458;28;20038;-74
2023/05/07 20:48:32;;;;;;;3.97;2.72;;;13.10;82.50;;;;;;5048321;28;20555;-74
2023/05/07 20:50:59;;;;;;;4.18;2.80;;;13.00;82.70;;;;;;5039974;28;20136;-73
2023/05/07 20:53:27;;;;;;;4.15;2.65;;;13.00;82.90;;;;;;5028470;28;20021;-73